Observations for CHERBOURG MAUPERTUS, France (LFRC)

LFRC 221300Z AUTO 32007KT 290V360 9999 // FEW029 BKN034 BKN041 06/01 Q1003  
LFRC 221230Z AUTO 29011KT 9999 // FEW022/// SCT029/// BKN034/// ///TCU 08/01 Q1004  
LFRC 221200Z AUTO 30013KT 9999 // SCT033 07/00 Q1004
LFRC 221130Z AUTO 30015KT 9999 // FEW027 07/M00 Q1005   
LFRC 221100Z AUTO 29015KT 9999 // BKN029 BKN046 07/01 Q1005 
LFRC 221030Z AUTO 30013KT 9999 // BKN029/// ///TCU 07/00 Q1005  
LFRC 221000Z AUTO 30011KT 9999 // FEW028 SCT044 07/00 Q1005 
LFRC 220930Z AUTO 30014KT 9999 // BKN029 BKN038 BKN047 06/M00 Q1006 
LFRC 220900Z AUTO 30013KT 9999 // SCT025 SCT033 06/00 Q1005 
LFRC 220830Z AUTO 30013KT 9999 // BKN023 06/01 Q1006
LFRC 220800Z AUTO 27012KT 9999 SCT023 SCT030 BKN160 05/01 Q1006 TEMPO 27015G25KT 4000 SHRA BKN020TCU
LFRC 220730Z AUTO 30013KT 260V330 9999 BKN029 BKN035 OVC043 06/01 Q1006 TEMPO 27015G25KT 4000 SHRA BKN020TCU
LFRC 220700Z AUTO 30010KT 9999 FEW030 BKN160 06/M00 Q1006 TEMPO 27015G25KT 4000 SHRA BKN020TCU  
LFRC 220630Z AUTO 29013KT 9999 SCT034 BKN042 BKN054 06/00 Q1006 TEMPO 27015G25KT 4000 SHRA BKN020TCU
LFRC 220600Z AUTO 30012G23KT 9999 FEW032 SCT048 BKN180 06/M00 Q1006 NOSIG   
LFRC 220530Z AUTO 29012KT 9999 BKN030 BKN046 OVC180 06/01 Q1006 NOSIG   
LFRC 220500Z AUTO 31010KT 280V350 9999 SCT026 SCT041 BKN048 06/00 Q1007 
LFRC 220430Z AUTO 31012KT 280V340 9999 SCT027 BKN050 BKN082 06/01 Q1007 
LFRC 220400Z AUTO 31012KT 280V340 9999 FEW013 BKN025 BKN036 06/02 Q1007 
LFRC 220330Z AUTO 27010KT 9999 -RA BKN012 BKN018 OVC026 06/04 Q1007 
LFRC 220300Z AUTO 22019KT 6000 +SNRA BKN010 OVC016 06/04 Q1007  
LFRC 220230Z AUTO 21018KT 5000 RA BR BKN008 OVC014 06/04 Q1007  
LFRC 220200Z AUTO 21018KT 4700 RA BR BKN008 OVC015 06/04 Q1008  
LFRC 220130Z AUTO 20015KT 180V250 5000 -RA BR BKN008 OVC015 06/04 Q1009 
LFRC 220100Z AUTO 20018KT 5000 RA BR OVC010 06/04 Q1009 
LFRC 220030Z AUTO 20018KT 7000 -RA OVC010 06/04 Q1010   
LFRC 220000Z AUTO 19014KT 9000 OVC010 06/03 Q1011   
LFRC 212330Z AUTO 19013KT 8000 BKN010 OVC016 06/03 Q1012
LFRC 212300Z AUTO 19013KT 7000 BKN011 BKN033 BKN062 05/03 Q1012 
LFRC 212230Z AUTO 18009KT 5000 BR OVC012 04/02 Q1013
LFRC 212200Z AUTO 18010KT 5000 BR BKN015 OVC021 04/02 Q1014 
LFRC 212130Z AUTO 18011KT 6000 BKN017 OVC052 04/01 Q1015
LFRC 212100Z AUTO 18008KT 8000 -DZ BKN017 BKN023 OVC029 03/00 Q1016 
LFRC 212030Z AUTO 18010KT 7000 FEW018 BKN032 BKN038 03/01 Q1016 
LFRC 212000Z AUTO 19010KT 6000 FEW017 SCT150 BKN230 03/00 Q1017 
LFRC 211930Z AUTO 18010KT 6000 FEW017 BKN047 03/00 Q1017
LFRC 211900Z AUTO 19010KT 9000 BKN020 BKN029 OVC035 04/M00 Q1018
LFRC 211830Z AUTO 20010KT 9000 SCT027 OVC035 04/M00 Q1019 NOSIG 
LFRC 211800Z AUTO 19008KT 9000 BKN039 03/M01 Q1019 NOSIG
LFRC 211730Z AUTO 19008KT 9000 BKN042 03/M01 Q1019 NOSIG
LFRC 211700Z AUTO 20006KT 9000 SCT039 BKN220 03/M02 Q1020 NOSIG 
LFRC 211630Z AUTO 19006KT 9999 UP FEW034 03/M02 Q1020   
LFRC 211600Z AUTO 18006KT 9999 OVC033 05/M01 Q1020 NOSIG
LFRC 211530Z AUTO 19004KT 9999 OVC029 05/M01 Q1021 NOSIG
LFRC 211500Z AUTO 22003KT 9999 SCT029 05/M01 Q1021 NOSIG
LFRC 211430Z AUTO 19003KT 150V230 CAVOK 07/M01 Q1021 NOSIG  
LFRC 211400Z AUTO VRB01KT 9999 SCT029 07/M01 Q1022 NOSIG
LFRC 211330Z AUTO VRB02KT 9999 BKN029 07/M02 Q1022 NOSIG
LFRC 211300Z AUTO VRB02KT 9999 SCT026 06/M01 Q1023 NOSIG
LFRC 211230Z AUTO 36004KT 310V030 9999 OVC026 05/M02 Q1023 NOSIG